KMDD/MDD METAR and TAF weather

Enter ICAO airport designator
Station Type Date Time Source
KMDD METAR 2022/06/28 23:55 UTC NOAA

KMDD 282355Z AUTO 05015KT 10SM CLR 30/15 A3014 RMK AO2 LTG DSNT NW T02990154 10340 20286 403400218


Station Type Date Time Source
KMDD Decoded METAR 2022/06/28 23:55 UTC NOAA

Midland, Midland Airpark, TX, United States (KMDD) 32-02-11N 102-06-03W
Jun 28, 2022 - 07:55 PM EDT / 2022.06.28 2355 UTC
Wind: from the NE (050 degrees) at 17 MPH (15 KT):0
Visibility: 10 mile(s):0
Sky conditions: clear
Weather: Lightning observed
Temperature: 85.8 F (29.9 C)
Dew Point: 59.7 F (15.4 C)
Relative Humidity: 41%
Pressure (altimeter): 30.14 in. Hg (1020 hPa)
ob: KMDD 282355Z AUTO 05015KT 10SM CLR 30/15 A3014 RMK AO2 LTG DSNT NW T02990154 10340 20286 403400218
cycle: 0

Station Type Date Time Source
KMDD TAF UTC NOAA

Error!

Example: see airport list